createdAt,value
2022-12-13T00:00:27.637Z,35.25
2022-12-13T00:03:16.033Z,35.10
2022-12-13T00:06:08.807Z,35.75
2022-12-13T00:08:56.044Z,34.40
2022-12-13T00:11:44.696Z,35.42
2022-12-13T00:14:30.313Z,34.58
2022-12-13T00:17:15.785Z,33.70
2022-12-13T00:20:07.679Z,36.67
2022-12-13T00:22:53.437Z,34.80
2022-12-13T00:25:44.270Z,35.13
2022-12-13T00:28:32.977Z,35.67
2022-12-13T00:31:53.391Z,35.85
2022-12-13T00:34:25.332Z,35.45
2022-12-13T00:37:10.782Z,36.70
2022-12-13T00:39:58.669Z,36.40
2022-12-13T00:42:44.225Z,34.80
2022-12-13T00:45:29.432Z,36.83
2022-12-13T00:48:15.018Z,36.10
2022-12-13T00:51:00.530Z,36.78
2022-12-13T00:53:45.890Z,36.35
2022-12-13T00:56:34.562Z,36.95
2022-12-13T00:59:22.622Z,36.25
2022-12-13T01:02:11.063Z,38.95
2022-12-13T01:04:56.717Z,35.42
2022-12-13T01:07:45.389Z,36.58
2022-12-13T01:10:30.791Z,37.85
2022-12-13T01:13:16.446Z,37.00
2022-12-13T01:16:06.778Z,35.53
2022-12-13T01:18:52.798Z,35.00
2022-12-13T01:21:38.369Z,37.13
2022-12-13T01:24:24.786Z,37.50
2022-12-13T01:27:10.897Z,37.70
2022-12-13T01:29:56.118Z,38.30
2022-12-13T01:32:41.750Z,35.92
2022-12-13T01:35:27.263Z,36.97
2022-12-13T01:38:15.660Z,36.08
2022-12-13T01:41:02.065Z,36.15
2022-12-13T01:44:41.223Z,37.42
2022-12-13T01:47:44.010Z,37.20
2022-12-13T01:50:37.499Z,35.63
2022-12-13T01:53:27.128Z,36.00
2022-12-13T01:56:23.557Z,38.67
2022-12-13T01:59:12.309Z,37.78
2022-12-13T02:02:00.722Z,37.95
2022-12-13T02:05:05.686Z,35.92
2022-12-13T02:07:51.939Z,38.38
2022-12-13T02:10:37.696Z,35.90
2022-12-13T02:13:23.142Z,37.10
2022-12-13T02:16:31.384Z,37.78
2022-12-13T02:19:58.920Z,38.55
2022-12-13T02:22:50.171Z,37.33
2022-12-13T02:26:15.886Z,37.35
2022-12-13T02:29:30.949Z,37.85
2022-12-13T02:32:19.953Z,38.22
2022-12-13T02:35:27.203Z,38.65
2022-12-13T02:38:29.385Z,37.78
2022-12-13T02:41:36.590Z,38.38
2022-12-13T02:44:30.841Z,37.85
2022-12-13T02:47:22.769Z,38.55
2022-12-13T02:50:09.539Z,39.78
2022-12-13T02:52:55.695Z,40.97
2022-12-13T02:55:41.208Z,41.95
2022-12-13T02:58:35.259Z,39.17
2022-12-13T03:01:28.550Z,40.08
2022-12-13T03:04:21.037Z,39.60
2022-12-13T03:07:28.472Z,39.53
2022-12-13T03:10:21.918Z,39.80
2022-12-13T03:13:32.030Z,41.55
2022-12-13T03:16:38.490Z,41.28
2022-12-13T03:19:29.465Z,39.63
2022-12-13T03:22:15.082Z,37.53
2022-12-13T03:25:01.196Z,39.35
2022-12-13T03:27:46.942Z,42.38
2022-12-13T03:30:33.591Z,39.47
2022-12-13T03:33:19.167Z,42.10
2022-12-13T03:36:05.914Z,42.50
2022-12-13T03:38:53.720Z,42.03
2022-12-13T03:41:39.226Z,42.92
2022-12-13T03:44:24.580Z,40.33
2022-12-13T03:47:17.384Z,41.05
2022-12-13T03:50:25.487Z,42.45
2022-12-13T03:56:13.398Z,43.77
2022-12-13T03:58:59.336Z,42.85
2022-12-13T04:01:44.763Z,44.92
2022-12-13T04:04:29.944Z,45.00
2022-12-13T04:07:22.520Z,45.33
2022-12-13T04:10:25.615Z,41.60
2022-12-13T04:13:30.238Z,42.75
2022-12-13T04:16:15.607Z,41.75
2022-12-13T04:19:01.022Z,42.55
2022-12-13T04:21:47.779Z,40.80
2022-12-13T04:24:32.930Z,41.03
2022-12-13T04:27:19.234Z,41.55
2022-12-13T04:30:29.710Z,41.97
2022-12-13T04:33:14.945Z,38.80
2022-12-13T04:36:00.465Z,37.95
2022-12-13T04:38:46.869Z,37.20
2022-12-13T04:41:36.797Z,37.13
2022-12-13T04:44:27.614Z,36.78
2022-12-13T04:47:15.706Z,35.78
2022-12-13T04:50:02.783Z,37.60
2022-12-13T04:52:48.197Z,37.75
2022-12-13T04:55:36.971Z,38.20
2022-12-13T04:58:23.220Z,34.83
2022-12-13T05:01:11.249Z,34.95
2022-12-13T05:03:56.785Z,35.55
2022-12-13T05:06:42.810Z,37.70
2022-12-13T05:09:31.278Z,36.85
2022-12-13T05:12:22.416Z,37.90
2022-12-13T05:15:09.138Z,34.88
2022-12-13T05:17:54.714Z,34.53
2022-12-13T05:20:40.178Z,32.10
2022-12-13T05:23:25.698Z,33.78
2022-12-13T05:26:11.405Z,33.97
2022-12-13T05:28:57.302Z,34.55
2022-12-13T05:31:42.948Z,34.58
2022-12-13T05:34:28.158Z,34.15
2022-12-13T05:37:14.646Z,34.60
2022-12-13T05:40:00.271Z,34.08
2022-12-13T05:42:45.735Z,33.35
2022-12-13T05:45:36.816Z,33.85
2022-12-13T05:48:24.486Z,34.53
2022-12-13T05:51:12.035Z,33.13
2022-12-13T05:54:00.848Z,33.45
2022-12-13T05:56:48.994Z,31.90
2022-12-13T05:59:34.703Z,32.97
2022-12-13T06:02:21.640Z,33.28
2022-12-13T06:05:08.003Z,34.65
2022-12-13T06:07:57.607Z,33.97
2022-12-13T06:10:43.847Z,34.08
2022-12-13T06:13:32.381Z,34.42
2022-12-13T06:16:24.055Z,32.00
2022-12-13T06:19:10.013Z,33.17
2022-12-13T06:21:55.794Z,32.97
2022-12-13T06:24:41.604Z,34.53
2022-12-13T06:27:27.633Z,34.75
2022-12-13T06:30:13.553Z,34.72
2022-12-13T06:32:58.811Z,32.53
2022-12-13T06:35:44.415Z,32.78
2022-12-13T06:38:31.959Z,32.13
2022-12-13T06:41:21.108Z,32.97
2022-12-13T06:44:07.876Z,33.10
2022-12-13T06:47:11.129Z,33.83
2022-12-13T06:49:57.406Z,33.55
2022-12-13T06:58:42.534Z,32.67
2022-12-13T07:01:37.417Z,32.42
2022-12-13T07:04:29.519Z,32.83
2022-12-13T07:07:15.673Z,30.85
2022-12-13T07:10:01.344Z,32.30
2022-12-13T07:12:46.683Z,33.38
2022-12-13T07:15:34.132Z,32.40
2022-12-13T07:18:20.122Z,32.58
2022-12-13T07:21:21.384Z,30.38
2022-12-13T07:24:08.266Z,31.58
2022-12-13T07:26:54.046Z,31.10
2022-12-13T07:29:42.768Z,30.98
2022-12-13T07:32:28.471Z,32.17
2022-12-13T07:35:14.286Z,31.30
2022-12-13T07:37:59.855Z,34.17
2022-12-13T07:40:46.316Z,31.92
2022-12-13T07:43:35.126Z,31.13
2022-12-13T07:46:31.925Z,30.92
2022-12-13T07:49:19.363Z,30.77
2022-12-13T07:52:11.235Z,31.67
2022-12-13T07:54:57.006Z,34.40
2022-12-13T07:57:42.755Z,34.15
2022-12-13T08:00:31.314Z,34.72
2022-12-13T08:03:24.914Z,32.33
2022-12-13T08:06:12.091Z,35.03
2022-12-13T08:08:58.192Z,34.10
2022-12-13T08:11:43.394Z,33.60
2022-12-13T08:14:29.302Z,33.75
2022-12-13T08:17:14.770Z,33.67
2022-12-13T08:20:00.315Z,34.42
2022-12-13T08:22:49.562Z,34.50
2022-12-13T08:25:35.604Z,35.03
2022-12-13T08:28:21.023Z,36.92
2022-12-13T08:31:12.550Z,35.92
2022-12-13T08:33:57.950Z,35.10
2022-12-13T08:36:43.341Z,35.88
2022-12-13T08:39:29.085Z,38.67
2022-12-13T08:42:21.198Z,37.35
2022-12-13T08:45:07.265Z,36.28
2022-12-13T08:47:52.518Z,39.22
2022-12-13T08:50:40.852Z,42.83
2022-12-13T08:53:28.117Z,40.83
2022-12-13T08:56:14.049Z,39.10
2022-12-13T08:59:01.229Z,39.55
2022-12-13T09:01:47.514Z,42.35
2022-12-13T09:04:42.198Z,41.97
2022-12-13T09:07:30.804Z,40.47
2022-12-13T09:10:26.721Z,39.95
2022-12-13T09:13:13.320Z,39.60
2022-12-13T09:16:23.878Z,41.20
2022-12-13T09:19:25.258Z,38.50
2022-12-13T09:22:16.675Z,40.95
2022-12-13T09:25:23.965Z,39.15
2022-12-13T09:28:09.867Z,41.40
2022-12-13T09:30:56.174Z,40.53
2022-12-13T09:33:44.027Z,37.35
2022-12-13T09:36:29.518Z,40.42
2022-12-13T09:39:18.286Z,39.83
2022-12-13T09:42:10.528Z,42.05
2022-12-13T09:45:22.297Z,38.88
2022-12-13T09:48:22.549Z,35.63
2022-12-13T09:51:17.112Z,37.50
2022-12-13T09:54:20.707Z,36.33
2022-12-13T09:57:15.733Z,37.25
2022-12-13T10:00:21.321Z,36.72
2022-12-13T10:03:11.814Z,34.97
2022-12-13T10:05:59.633Z,34.40
2022-12-13T10:08:57.262Z,33.25
2022-12-13T10:11:53.298Z,34.65
2022-12-13T10:14:43.903Z,34.80
2022-12-13T10:17:38.401Z,33.08
2022-12-13T10:20:28.161Z,33.15
2022-12-13T10:26:24.526Z,32.85
2022-12-13T10:29:10.925Z,32.88
2022-12-13T10:32:01.986Z,29.63
2022-12-13T10:34:48.666Z,30.73
2022-12-13T10:37:38.217Z,29.10
2022-12-13T10:40:32.660Z,29.67
2022-12-13T10:43:22.867Z,30.90
2022-12-13T10:46:25.091Z,27.70
2022-12-13T10:49:20.907Z,28.25
2022-12-13T10:52:31.023Z,28.65
2022-12-13T10:55:37.512Z,27.85
2022-12-13T10:58:23.398Z,27.00
2022-12-13T11:01:20.669Z,28.45
2022-12-13T11:04:27.549Z,25.60
2022-12-13T11:07:27.464Z,27.58
2022-12-13T11:10:28.838Z,26.85
2022-12-13T11:13:29.541Z,25.23
2022-12-13T11:16:30.567Z,24.73
2022-12-13T11:19:26.455Z,25.20
2022-12-13T11:22:22.046Z,26.63
2022-12-13T11:25:40.017Z,24.90
2022-12-13T11:28:49.236Z,25.90
2022-12-13T11:31:56.714Z,25.02
2022-12-13T11:34:57.319Z,25.65
2022-12-13T11:38:02.613Z,25.38
2022-12-13T11:40:59.956Z,26.02
2022-12-13T11:44:01.257Z,26.52
2022-12-13T11:46:51.781Z,25.90
2022-12-13T11:49:43.036Z,26.00
2022-12-13T11:52:40.890Z,26.30
2022-12-13T11:55:40.446Z,26.80
2022-12-13T11:59:02.008Z,23.92
2022-12-13T12:01:51.877Z,25.00
2022-12-13T12:04:59.642Z,23.77
2022-12-13T12:08:31.337Z,21.30
2022-12-13T12:11:16.796Z,21.38
2022-12-13T12:14:11.064Z,22.42
2022-12-13T12:16:58.802Z,21.00
2022-12-13T12:19:49.508Z,20.13
2022-12-13T12:22:46.466Z,22.40
2022-12-13T12:26:10.434Z,21.83
2022-12-13T12:29:17.798Z,20.17
2022-12-13T12:32:20.546Z,23.80
2022-12-13T12:35:27.072Z,27.73
2022-12-13T12:38:32.689Z,28.55
2022-12-13T12:41:51.766Z,26.17
2022-12-13T12:45:26.996Z,24.50
2022-12-13T12:51:47.172Z,21.45
2022-12-13T12:54:38.293Z,22.15
2022-12-13T12:58:02.573Z,22.40
2022-12-13T13:01:07.343Z,21.70
2022-12-13T13:04:01.691Z,22.67
2022-12-13T13:06:53.335Z,21.63
2022-12-13T13:09:50.865Z,22.00
2022-12-13T13:12:43.127Z,22.30
2022-12-13T13:15:32.010Z,22.55
2022-12-13T13:18:50.721Z,22.63
2022-12-13T13:21:45.321Z,22.00
2022-12-13T13:24:32.384Z,22.67
2022-12-13T13:27:30.252Z,22.15
2022-12-13T13:31:08.993Z,21.95
2022-12-13T13:33:57.666Z,23.83
2022-12-13T13:36:43.209Z,22.42
2022-12-13T13:39:28.640Z,22.00
2022-12-13T13:42:16.584Z,22.13
2022-12-13T13:45:22.596Z,22.75
2022-12-13T13:48:26.890Z,21.60
2022-12-13T13:51:31.099Z,23.08
2022-12-13T13:54:48.310Z,17.23
2022-12-13T13:58:09.876Z,23.23
2022-12-13T14:01:17.153Z,22.25
2022-12-13T14:04:43.340Z,25.67
2022-12-13T14:07:50.351Z,25.70
2022-12-13T14:11:00.483Z,25.60
2022-12-13T14:14:21.724Z,24.42
2022-12-13T14:17:21.421Z,24.70
2022-12-13T14:20:20.100Z,24.77
2022-12-13T14:23:21.529Z,25.35
2022-12-13T14:26:40.996Z,24.70
2022-12-13T14:29:48.337Z,25.73
2022-12-13T14:32:46.217Z,26.35
2022-12-13T14:35:32.869Z,24.13
2022-12-13T14:38:25.226Z,25.02
2022-12-13T14:41:19.898Z,24.70
2022-12-13T14:44:23.216Z,25.33
2022-12-13T14:47:11.502Z,25.10
2022-12-13T14:49:56.818Z,25.75
2022-12-13T14:52:44.121Z,26.42
2022-12-13T14:55:35.614Z,25.27
2022-12-13T14:58:22.162Z,26.67
2022-12-13T15:01:29.647Z,28.95
2022-12-13T15:04:24.969Z,27.02
2022-12-13T15:07:32.591Z,28.08
2022-12-13T15:10:28.619Z,28.38
2022-12-13T15:13:25.191Z,27.50
2022-12-13T15:16:28.488Z,28.77
2022-12-13T15:19:31.324Z,28.38
2022-12-13T15:22:22.167Z,28.13
2022-12-13T15:25:24.163Z,28.63
2022-12-13T15:28:21.486Z,28.30
2022-12-13T15:31:09.118Z,30.35
2022-12-13T15:34:01.231Z,29.75
2022-12-13T15:36:47.126Z,29.77
2022-12-13T15:39:38.785Z,28.30
2022-12-13T15:42:38.276Z,29.15
2022-12-13T15:45:30.469Z,31.08
2022-12-13T15:48:25.985Z,29.92
2022-12-13T15:51:28.886Z,31.92
2022-12-13T15:54:21.772Z,30.40
2022-12-13T15:57:22.818Z,32.13
2022-12-13T16:00:17.438Z,32.58
2022-12-13T16:03:19.664Z,31.48
2022-12-13T16:06:06.502Z,32.30
2022-12-13T16:08:58.707Z,33.83
2022-12-13T16:11:51.185Z,31.38
2022-12-13T16:14:49.587Z,33.33
2022-12-13T16:17:35.650Z,31.17
2022-12-13T16:20:22.649Z,31.80
2022-12-13T16:23:08.795Z,30.98
2022-12-13T16:26:04.286Z,31.40
2022-12-13T16:28:54.535Z,32.88
2022-12-13T16:31:39.884Z,33.88
2022-12-13T16:34:26.368Z,32.55
2022-12-13T16:37:26.281Z,33.70
2022-12-13T16:40:33.382Z,32.75
2022-12-13T16:43:21.332Z,32.03
2022-12-13T16:47:12.653Z,32.70
2022-12-13T16:49:24.857Z,33.00
2022-12-13T16:52:10.886Z,32.30
2022-12-13T16:55:00.454Z,32.85
2022-12-13T16:57:56.159Z,33.63
2022-12-13T17:00:42.683Z,32.17
2022-12-13T17:03:28.611Z,31.52
2022-12-13T17:06:19.274Z,31.83
2022-12-13T17:09:05.006Z,32.47
2022-12-13T17:11:50.573Z,33.95
2022-12-13T17:14:35.984Z,33.50
2022-12-13T17:17:21.324Z,34.10
2022-12-13T17:20:08.766Z,32.97
2022-12-13T17:22:58.435Z,33.70
2022-12-13T17:25:43.945Z,33.90
2022-12-13T17:28:29.640Z,34.30
2022-12-13T17:31:16.267Z,34.42
2022-12-13T17:34:04.564Z,33.25
2022-12-13T17:36:50.103Z,33.58
2022-12-13T17:39:35.738Z,34.22
2022-12-13T17:42:21.437Z,35.05
2022-12-13T17:45:07.407Z,35.67
2022-12-13T17:47:52.938Z,35.65
2022-12-13T17:50:38.726Z,36.08
2022-12-13T17:53:25.030Z,36.88
2022-12-13T17:56:13.065Z,38.33
2022-12-13T17:58:58.739Z,36.90
2022-12-13T18:01:45.014Z,36.78
2022-12-13T18:04:30.794Z,37.50
2022-12-13T18:07:17.177Z,33.60
2022-12-13T18:10:03.055Z,33.42
2022-12-13T18:12:50.167Z,34.50
2022-12-13T18:15:35.953Z,33.55
2022-12-13T18:18:22.687Z,34.70
2022-12-13T18:21:14.744Z,32.40
2022-12-13T18:24:03.338Z,34.35
2022-12-13T18:26:49.031Z,32.13
2022-12-13T18:29:35.129Z,33.33
2022-12-13T18:32:21.004Z,33.08
2022-12-13T18:35:06.778Z,34.17
2022-12-13T18:37:52.302Z,33.47
2022-12-13T18:40:42.022Z,32.15
2022-12-13T18:43:27.534Z,32.80
2022-12-13T18:46:14.549Z,31.70
2022-12-13T18:49:05.528Z,31.73
2022-12-13T18:51:50.907Z,34.00
2022-12-13T18:54:36.541Z,32.85
2022-12-13T18:57:22.034Z,31.45
2022-12-13T19:00:08.457Z,34.58
2022-12-13T19:02:56.618Z,33.85
2022-12-13T19:05:42.017Z,33.10
2022-12-13T19:08:28.760Z,32.58
2022-12-13T19:11:14.439Z,33.97
2022-12-13T19:14:05.627Z,31.00
2022-12-13T19:16:51.195Z,32.05
2022-12-13T19:19:37.075Z,32.38
2022-12-13T19:22:23.333Z,30.77
2022-12-13T19:25:09.706Z,30.42
2022-12-13T19:27:56.697Z,30.00
2022-12-13T19:30:44.791Z,28.80
2022-12-13T19:33:35.532Z,30.55
2022-12-13T19:36:27.017Z,30.08
2022-12-13T19:39:13.246Z,29.73
2022-12-13T19:41:58.642Z,31.65
2022-12-13T19:44:43.957Z,30.77
2022-12-13T19:47:29.539Z,32.05
2022-12-13T19:50:15.354Z,29.75
2022-12-13T19:53:00.509Z,30.35
2022-12-13T19:55:52.355Z,32.15
2022-12-13T19:58:38.508Z,31.73
2022-12-13T20:01:24.131Z,32.58
2022-12-13T20:04:10.888Z,29.65
2022-12-13T20:06:57.141Z,29.08
2022-12-13T20:09:42.875Z,30.60
2022-12-13T20:12:29.658Z,28.90
2022-12-13T20:15:15.294Z,31.48
2022-12-13T20:18:00.697Z,28.85
2022-12-13T20:21:10.534Z,29.45
2022-12-13T20:23:53.054Z,30.98
2022-12-13T20:26:39.198Z,29.15
2022-12-13T20:29:24.939Z,28.73
2022-12-13T20:32:13.490Z,28.58
2022-12-13T20:35:00.111Z,29.33
2022-12-13T20:37:48.338Z,29.20
2022-12-13T20:40:34.547Z,27.55
2022-12-13T20:43:20.035Z,28.17
2022-12-13T20:46:11.164Z,27.27
2022-12-13T20:48:58.130Z,28.25
2022-12-13T20:51:43.712Z,27.17
2022-12-13T20:54:29.306Z,26.58
2022-12-13T20:57:14.875Z,27.88
2022-12-13T21:00:00.730Z,27.13
2022-12-13T21:02:48.698Z,28.02
2022-12-13T21:05:36.937Z,25.38
2022-12-13T21:08:43.725Z,27.23
2022-12-13T21:11:33.350Z,27.80
2022-12-13T21:14:39.299Z,24.88
2022-12-13T21:17:24.558Z,26.15
2022-12-13T21:20:10.388Z,27.23
2022-12-13T21:22:58.417Z,25.35
2022-12-13T21:25:51.767Z,27.02
2022-12-13T21:28:39.647Z,28.23
2022-12-13T21:31:25.823Z,26.60
2022-12-13T21:34:11.829Z,27.52
2022-12-13T21:36:57.514Z,27.10
2022-12-13T21:39:42.789Z,26.38
2022-12-13T21:42:28.507Z,25.35
2022-12-13T21:45:13.869Z,27.17
2022-12-13T21:47:59.414Z,26.25
2022-12-13T21:50:52.716Z,26.25
2022-12-13T21:53:38.934Z,26.60
2022-12-13T21:56:46.963Z,25.98
2022-12-13T21:59:32.502Z,26.20
2022-12-13T22:02:19.229Z,25.75
2022-12-13T22:05:05.526Z,23.83
2022-12-13T22:07:54.289Z,24.23
2022-12-13T22:10:59.566Z,24.50
2022-12-13T22:13:44.846Z,23.85
2022-12-13T22:16:34.686Z,23.00
2022-12-13T22:19:20.246Z,23.38
2022-12-13T22:22:06.746Z,22.40
2022-12-13T22:24:54.195Z,24.23
2022-12-13T22:27:43.250Z,23.98
2022-12-13T22:30:28.537Z,23.55
2022-12-13T22:33:14.704Z,22.98
2022-12-13T22:36:03.849Z,24.65
2022-12-13T22:38:49.975Z,23.05
2022-12-13T22:41:35.670Z,21.88
2022-12-13T22:44:21.144Z,21.85
2022-12-13T22:47:09.198Z,22.45
2022-12-13T22:49:55.630Z,24.00
2022-12-13T22:52:41.157Z,22.85
2022-12-13T22:55:29.342Z,22.23
2022-12-13T22:58:14.753Z,21.75
2022-12-13T23:01:08.366Z,21.55
2022-12-13T23:03:54.742Z,22.25
2022-12-13T23:06:41.116Z,21.88
2022-12-13T23:09:28.954Z,20.92
2022-12-13T23:12:35.942Z,21.80
2022-12-13T23:15:21.122Z,21.40
2022-12-13T23:18:09.724Z,21.55
2022-12-13T23:20:55.202Z,19.95
2022-12-13T23:23:40.849Z,19.95
2022-12-13T23:26:29.763Z,20.27
2022-12-13T23:29:15.065Z,20.85
2022-12-13T23:32:00.766Z,19.92
2022-12-13T23:34:46.547Z,21.45
2022-12-13T23:37:35.111Z,20.23
2022-12-13T23:40:20.299Z,19.05
2022-12-13T23:43:05.734Z,19.63
2022-12-13T23:45:51.371Z,18.70
2022-12-13T23:48:37.015Z,18.88
2022-12-13T23:51:22.493Z,19.17
2022-12-13T23:54:07.651Z,20.17
2022-12-13T23:56:53.688Z,20.77
2022-12-13T23:59:39.563Z,19.92
